Friday, September 19, 2014, 11:48 AM EDT

KPOU, Poughkeepsie Dutchess Cty

Location: Wappingers Falls, NY, United States Lat: 41.633
Local Time: 11:48 AM EDT (15:48 GMT) Lon: -73.883
Time Zone: US/Eastern Elev: 167 ft

Show me the last for .
Show Decoded

2014-09-19 10:53 METAR KPOU 191453Z 02005KT 10SM FEW036 14/04 A3036 RMK AO2 SLP277 T01440044
                 51011 =
2014-09-19 09:53 METAR KPOU 191353Z 34006KT 10SM CLR 12/04 A3036 RMK AO2 SLP277 T01220044 =
2014-09-19 08:53 METAR KPOU 191253Z 01007KT 10SM CLR 11/04 A3035 RMK AO2 SLP274 T01060039 =
2014-09-19 07:53 METAR KPOU 191153Z 01006KT 10SM BKN037 09/04 A3033 =
2014-09-19 06:53 METAR KPOU 191053Z 01007KT 10SM SCT036 08/04 A3030 RMK AO2 SLP259 T00780039 =
2014-09-19 06:06 METAR KPOU 191006Z AUTO 02007KT 10SM BKN017 08/05 A3029 =
2014-09-19 05:53 METAR KPOU 190953Z AUTO 01006KT 10SM FEW020 SCT037 08/04 A3028 RMK AO2 SLP251
                 T00780044 =
2014-09-19 04:53 METAR KPOU 190853Z AUTO 01004KT 10SM CLR 08/06 A3025 RMK AO2 SLP241 T00830056
                 53021 =
2014-09-19 03:53 METAR KPOU 190753Z AUTO 36004KT 10SM CLR 09/06 A3022 RMK AO2 SLP231 T00890061 =
2014-09-19 02:53 METAR KPOU 190653Z AUTO 00000KT 10SM CLR 10/07 A3021 RMK AO2 SLP226 T01000067 =
2014-09-19 01:53 METAR KPOU 190553Z AUTO 01007KT 10SM SCT080 11/07 A3019 RMK AO2 SLP219 T01110072
                 10178 20111 53025 =
2014-09-19 00:53 METAR KPOU 190453Z AUTO 36008KT 10SM CLR 12/08 A3016 =
2014-09-18 23:53 METAR KPOU 190353Z AUTO 35006KT 10SM BKN065 BKN080 14/09 A3014 RMK AO2 SLP203
                 T01390094 =
2014-09-18 22:53 METAR KPOU 190253Z AUTO 36004KT 10SM BKN065 OVC090 16/10 A3012 RMK AO2 SLP195
                 T01560100 51029 =
2014-09-18 21:53 METAR KPOU 190153Z AUTO 02009KT 10SM FEW070 BKN090 17/10 A3009 RMK AO2 SLP187
                 T01670100 =
2014-09-18 20:53 METAR KPOU 190053Z AUTO 01008KT 10SM BKN065 OVC090 18/11 A3007 RMK AO2 SLP179
                 T01780106 =
2014-09-18 19:53 METAR KPOU 182353Z 00000KT 10SM BKN095 16/12 A3003 RMK AO2 SLP165 T01610122
                 10244 20161 53014 =
2014-09-18 18:53 METAR KPOU 182253Z 04003KT 10SM FEW095 17/11 A3000 RMK AO2 SLP157 T01720111 =
2014-09-18 17:53 METAR KPOU 182153Z 36003KT 10SM BKN095 23/08 A2999 RMK AO2 SLP153 T02280083 =
2014-09-18 16:53 METAR KPOU 182053Z 01006KT 10SM SCT070 OVC085 23/07 A2999 RMK AO2 SLP151
                 T02330072 53002 =
2014-09-18 15:53 METAR KPOU 181953Z AUTO VRB03KT 10SM SCT085 24/07 A2998 RMK AO2 SLP148 T02390072
                 =
2014-09-18 14:53 METAR KPOU 181853Z 29006KT 10SM SCT080 23/07 A2998 RMK AO2 SLP148 T02280072 =
2014-09-18 13:53 METAR KPOU 181753Z 00000KT 10SM FEW060 FEW075 22/08 A2998 RMK AO2 SLP150
                 T02220078 10228 20083 58010 =
2014-09-18 12:53 METAR KPOU 181653Z VRB03KT 10SM CLR 22/07 A3000 RMK AO2 SLP155 T02220072 =
2014-09-18 11:53 METAR KPOU 181553Z VRB03KT 10SM CLR 21/10 A3000 RMK AO2 SLP157 T02060100 =

Support USWX by starting your Amazon purchase here.